createdAt,value
2023-05-09T00:02:23.768Z,2.80
2023-05-09T00:04:50.582Z,2.80
2023-05-09T00:07:17.623Z,3.00
2023-05-09T00:09:44.766Z,2.83
2023-05-09T00:12:12.536Z,3.00
2023-05-09T00:14:40.972Z,3.03
2023-05-09T00:17:07.937Z,3.35
2023-05-09T00:19:34.520Z,2.67
2023-05-09T00:22:01.631Z,3.58
2023-05-09T00:24:28.294Z,3.10
2023-05-09T00:26:54.887Z,3.08
2023-05-09T00:29:21.491Z,3.22
2023-05-09T00:31:48.080Z,2.75
2023-05-09T00:34:14.818Z,3.92
2023-05-09T00:36:41.803Z,3.13
2023-05-09T00:39:08.468Z,3.83
2023-05-09T00:41:35.256Z,3.83
2023-05-09T00:44:01.836Z,2.72
2023-05-09T00:46:28.622Z,3.38
2023-05-09T00:48:56.164Z,2.97
2023-05-09T00:51:23.802Z,3.63
2023-05-09T00:53:50.734Z,3.35
2023-05-09T00:56:17.680Z,3.83
2023-05-09T00:58:45.305Z,4.60
2023-05-09T01:01:12.180Z,3.30
2023-05-09T01:03:41.687Z,4.03
2023-05-09T01:06:08.306Z,3.95
2023-05-09T01:08:52.901Z,3.95
2023-05-09T01:11:31.482Z,3.38
2023-05-09T01:14:15.656Z,4.30
2023-05-09T01:16:51.462Z,5.20
2023-05-09T01:19:51.448Z,3.90
2023-05-09T01:22:20.169Z,4.47
2023-05-09T01:25:15.635Z,3.70
2023-05-09T01:28:03.649Z,3.47
2023-05-09T01:30:32.425Z,3.47
2023-05-09T01:33:01.545Z,3.92
2023-05-09T01:35:32.848Z,4.32
2023-05-09T01:37:59.904Z,3.90
2023-05-09T01:40:32.635Z,4.25
2023-05-09T01:43:05.803Z,4.53
2023-05-09T01:45:33.669Z,3.95
2023-05-09T01:48:01.659Z,3.72
2023-05-09T01:50:30.527Z,4.88
2023-05-09T01:53:01.417Z,4.45
2023-05-09T01:55:31.948Z,4.28
2023-05-09T01:57:59.523Z,4.15
2023-05-09T02:00:27.186Z,5.43
2023-05-09T02:02:55.599Z,4.35
2023-05-09T02:07:53.293Z,3.78
2023-05-09T02:10:20.933Z,4.43
2023-05-09T02:12:47.551Z,5.55
2023-05-09T02:15:15.164Z,4.10
2023-05-09T02:17:42.429Z,4.38
2023-05-09T02:20:11.618Z,4.63
2023-05-09T02:22:40.410Z,4.68
2023-05-09T02:25:08.184Z,3.67
2023-05-09T02:27:35.245Z,4.38
2023-05-09T02:30:07.440Z,4.50
2023-05-09T02:32:35.798Z,4.45
2023-05-09T02:35:04.154Z,4.18
2023-05-09T02:37:31.148Z,4.70
2023-05-09T02:39:58.786Z,4.35
2023-05-09T02:42:26.699Z,4.13
2023-05-09T02:44:53.948Z,3.58
2023-05-09T02:47:21.165Z,5.95
2023-05-09T02:49:48.005Z,5.25
2023-05-09T02:52:15.205Z,4.55
2023-05-09T02:54:41.894Z,4.55
2023-05-09T02:57:08.512Z,4.85
2023-05-09T02:59:35.088Z,4.75
2023-05-09T03:02:01.903Z,3.78
2023-05-09T03:04:28.573Z,5.32
2023-05-09T03:06:55.208Z,4.47
2023-05-09T03:09:21.817Z,3.63
2023-05-09T03:11:48.335Z,4.90
2023-05-09T03:14:15.492Z,4.65
2023-05-09T03:16:42.197Z,3.80
2023-05-09T03:19:08.910Z,4.70
2023-05-09T03:21:35.485Z,6.05
2023-05-09T03:24:02.217Z,4.07
2023-05-09T03:26:28.849Z,4.00
2023-05-09T03:28:55.480Z,4.78
2023-05-09T03:31:22.290Z,4.47
2023-05-09T03:33:48.883Z,5.93
2023-05-09T03:36:16.598Z,4.50
2023-05-09T03:38:43.405Z,3.85
2023-05-09T03:41:10.140Z,4.82
2023-05-09T03:43:37.314Z,4.57
2023-05-09T03:46:04.095Z,4.65
2023-05-09T03:48:30.681Z,4.32
2023-05-09T03:50:57.355Z,4.13
2023-05-09T03:53:24.033Z,4.50
2023-05-09T03:55:50.652Z,4.70
2023-05-09T03:58:19.393Z,4.00
2023-05-09T04:00:46.580Z,4.00
2023-05-09T04:03:13.399Z,5.00
2023-05-09T04:05:40.712Z,5.13
2023-05-09T04:08:07.384Z,5.47
2023-05-09T04:10:33.962Z,4.07
2023-05-09T04:13:01.287Z,3.63
2023-05-09T04:15:27.982Z,4.00
2023-05-09T04:17:54.671Z,4.40
2023-05-09T04:20:21.482Z,4.40
2023-05-09T04:22:48.062Z,4.15
2023-05-09T04:25:16.117Z,4.20
2023-05-09T04:27:42.971Z,4.18
2023-05-09T04:30:10.467Z,3.72
2023-05-09T04:32:38.133Z,3.85
2023-05-09T04:35:06.537Z,3.47
2023-05-09T04:37:33.195Z,3.97
2023-05-09T04:40:01.381Z,3.72
2023-05-09T04:42:27.975Z,3.88
2023-05-09T04:44:54.650Z,4.20
2023-05-09T04:47:21.282Z,2.95
2023-05-09T04:49:48.861Z,3.45
2023-05-09T04:52:16.331Z,4.15
2023-05-09T04:54:43.048Z,4.05
2023-05-09T04:57:17.971Z,5.13
2023-05-09T04:59:45.989Z,4.43
2023-05-09T05:02:15.674Z,3.35
2023-05-09T05:04:42.515Z,4.88
2023-05-09T05:07:09.239Z,3.70
2023-05-09T05:09:35.811Z,3.60
2023-05-09T05:12:04.219Z,3.50
2023-05-09T05:14:31.589Z,3.45
2023-05-09T05:16:58.699Z,4.30
2023-05-09T05:19:25.373Z,3.58
2023-05-09T05:21:52.090Z,3.83
2023-05-09T05:24:20.633Z,4.10
2023-05-09T05:26:47.743Z,3.35
2023-05-09T05:29:14.570Z,3.67
2023-05-09T05:31:41.266Z,3.60
2023-05-09T05:34:07.858Z,4.50
2023-05-09T05:36:34.434Z,4.32
2023-05-09T05:39:01.105Z,3.08
2023-05-09T05:41:27.937Z,4.85
2023-05-09T05:43:54.660Z,3.05
2023-05-09T05:46:21.481Z,5.10
2023-05-09T05:48:48.236Z,4.10
2023-05-09T05:51:16.721Z,4.43
2023-05-09T05:53:43.795Z,2.92
2023-05-09T05:56:10.502Z,3.28
2023-05-09T05:58:37.564Z,3.05
2023-05-09T06:01:04.342Z,4.03
2023-05-09T06:03:32.304Z,3.58
2023-05-09T06:05:59.566Z,3.25
2023-05-09T06:08:26.828Z,4.20
2023-05-09T06:10:53.535Z,3.42
2023-05-09T06:13:20.176Z,3.20
2023-05-09T06:15:47.366Z,3.75
2023-05-09T06:18:13.986Z,3.30
2023-05-09T06:20:40.690Z,3.33
2023-05-09T06:23:12.954Z,2.92
2023-05-09T06:25:39.712Z,4.13
2023-05-09T06:28:06.334Z,4.05
2023-05-09T06:30:32.937Z,4.47
2023-05-09T06:33:00.157Z,4.05
2023-05-09T06:35:27.297Z,3.92
2023-05-09T06:37:53.973Z,4.70
2023-05-09T06:40:21.726Z,3.13
2023-05-09T06:42:48.271Z,4.82
2023-05-09T06:45:15.050Z,4.10
2023-05-09T06:47:42.663Z,3.17
2023-05-09T06:50:12.452Z,3.40
2023-05-09T06:52:39.222Z,4.25
2023-05-09T06:55:14.301Z,3.45
2023-05-09T06:57:42.332Z,3.15
2023-05-09T07:00:10.254Z,4.88
2023-05-09T07:02:37.173Z,4.35
2023-05-09T07:05:03.946Z,3.38
2023-05-09T07:07:30.636Z,3.95
2023-05-09T07:10:07.347Z,3.97
2023-05-09T07:12:37.581Z,3.88
2023-05-09T07:15:06.386Z,2.88
2023-05-09T07:17:33.105Z,3.97
2023-05-09T07:19:59.963Z,4.85
2023-05-09T07:22:29.354Z,3.92
2023-05-09T07:24:58.187Z,4.40
2023-05-09T07:27:24.900Z,4.03
2023-05-09T07:29:52.587Z,3.45
2023-05-09T07:32:20.983Z,5.07
2023-05-09T07:34:48.180Z,3.67
2023-05-09T07:37:18.772Z,3.38
2023-05-09T07:39:48.047Z,3.17
2023-05-09T07:42:14.648Z,3.95
2023-05-09T07:44:41.297Z,3.60
2023-05-09T07:47:09.195Z,4.68
2023-05-09T07:49:36.858Z,3.25
2023-05-09T07:52:04.834Z,4.50
2023-05-09T07:54:31.563Z,4.47
2023-05-09T07:56:58.195Z,3.53
2023-05-09T07:59:25.055Z,3.78
2023-05-09T08:01:51.742Z,4.28
2023-05-09T08:04:18.406Z,3.92
2023-05-09T08:06:44.980Z,3.78
2023-05-09T08:09:11.679Z,3.55
2023-05-09T08:11:38.561Z,3.85
2023-05-09T08:14:05.087Z,4.65
2023-05-09T08:16:31.748Z,3.67
2023-05-09T08:18:58.390Z,4.22
2023-05-09T08:21:25.199Z,3.80
2023-05-09T08:23:52.848Z,4.38
2023-05-09T08:26:19.650Z,3.47
2023-05-09T08:28:46.388Z,3.50
2023-05-09T08:31:13.052Z,3.88
2023-05-09T08:33:41.811Z,3.17
2023-05-09T08:36:09.003Z,3.15
2023-05-09T08:38:36.449Z,3.65
2023-05-09T08:41:03.508Z,4.13
2023-05-09T08:43:32.123Z,4.57
2023-05-09T08:46:01.088Z,3.42
2023-05-09T08:48:28.887Z,3.80
2023-05-09T08:50:56.596Z,3.33
2023-05-09T08:53:23.873Z,4.03
2023-05-09T08:55:50.988Z,4.22
2023-05-09T08:58:22.736Z,3.88
2023-05-09T09:00:50.797Z,4.60
2023-05-09T09:05:45.067Z,3.53
2023-05-09T09:08:12.005Z,3.28
2023-05-09T09:10:47.640Z,3.00
2023-05-09T09:13:15.651Z,4.15
2023-05-09T09:15:45.563Z,3.17
2023-05-09T09:18:16.374Z,3.75
2023-05-09T09:20:51.207Z,3.55
2023-05-09T09:23:21.062Z,3.75
2023-05-09T09:25:49.253Z,4.40
2023-05-09T09:28:17.934Z,4.03
2023-05-09T09:30:46.105Z,3.60
2023-05-09T09:33:20.340Z,4.32
2023-05-09T09:35:51.782Z,4.40
2023-05-09T09:38:22.639Z,3.17
2023-05-09T09:40:52.325Z,4.57
2023-05-09T09:43:20.076Z,5.13
2023-05-09T09:45:51.475Z,3.40
2023-05-09T09:48:23.884Z,3.03
2023-05-09T09:50:50.728Z,3.65
2023-05-09T09:53:20.540Z,3.47
2023-05-09T09:55:52.155Z,2.90
2023-05-09T09:58:25.046Z,3.08
2023-05-09T10:01:21.243Z,2.42
2023-05-09T10:03:50.111Z,3.35
2023-05-09T10:06:17.305Z,2.65
2023-05-09T10:08:49.298Z,4.20
2023-05-09T10:11:29.856Z,3.00
2023-05-09T10:13:56.628Z,3.05
2023-05-09T10:16:35.738Z,2.72
2023-05-09T10:19:10.950Z,3.42
2023-05-09T10:24:08.944Z,2.30
2023-05-09T10:26:43.814Z,2.60
2023-05-09T10:29:13.075Z,2.67
2023-05-09T10:31:44.607Z,1.77
2023-05-09T10:34:13.180Z,2.88
2023-05-09T10:36:41.092Z,1.90
2023-05-09T10:39:08.396Z,2.53
2023-05-09T10:41:37.071Z,2.13
2023-05-09T10:44:03.819Z,3.03
2023-05-09T10:46:30.731Z,2.65
2023-05-09T10:48:57.959Z,1.65
2023-05-09T10:51:25.127Z,2.78
2023-05-09T10:53:51.948Z,1.65
2023-05-09T10:56:32.734Z,1.80
2023-05-09T10:59:00.069Z,2.33
2023-05-09T11:01:31.664Z,3.00
2023-05-09T11:04:00.096Z,2.60
2023-05-09T11:06:49.635Z,1.27
2023-05-09T11:09:28.704Z,2.75
2023-05-09T11:12:00.818Z,3.30
2023-05-09T11:14:41.274Z,2.60
2023-05-09T11:17:28.754Z,1.48
2023-05-09T11:20:01.375Z,2.53
2023-05-09T11:22:32.355Z,2.38
2023-05-09T11:25:10.163Z,2.05
2023-05-09T11:27:49.576Z,2.10
2023-05-09T11:30:18.628Z,1.80
2023-05-09T11:32:52.487Z,2.13
2023-05-09T11:35:21.318Z,2.28
2023-05-09T11:38:01.632Z,2.00
2023-05-09T11:40:29.155Z,3.25
2023-05-09T11:42:58.673Z,1.65
2023-05-09T11:45:31.937Z,1.83
2023-05-09T11:48:01.443Z,1.83
2023-05-09T11:50:29.708Z,1.45
2023-05-09T11:52:56.283Z,1.83
2023-05-09T11:55:23.320Z,1.92
2023-05-09T11:57:54.618Z,2.67
2023-05-09T12:00:23.890Z,2.25
2023-05-09T12:02:52.764Z,2.10
2023-05-09T12:05:25.577Z,2.05
2023-05-09T12:07:52.853Z,1.98
2023-05-09T12:10:21.423Z,1.95
2023-05-09T12:12:50.110Z,1.90
2023-05-09T12:15:18.099Z,1.65
2023-05-09T12:17:50.382Z,2.10
2023-05-09T12:20:20.008Z,2.58
2023-05-09T12:22:53.931Z,2.33
2023-05-09T12:25:20.577Z,2.67
2023-05-09T12:27:50.448Z,2.25
2023-05-09T12:30:18.636Z,1.83
2023-05-09T12:32:46.697Z,1.95
2023-05-09T12:35:13.574Z,1.80
2023-05-09T12:37:40.374Z,2.28
2023-05-09T12:40:12.544Z,1.50
2023-05-09T12:42:43.229Z,1.85
2023-05-09T12:45:10.604Z,1.67
2023-05-09T12:47:42.041Z,2.25
2023-05-09T12:50:12.170Z,2.13
2023-05-09T12:52:50.691Z,2.40
2023-05-09T12:55:25.721Z,2.30
2023-05-09T12:58:10.157Z,2.28
2023-05-09T13:00:44.433Z,2.35
2023-05-09T13:03:26.037Z,1.92
2023-05-09T13:06:04.795Z,1.92
2023-05-09T13:08:32.303Z,4.28
2023-05-09T13:11:11.831Z,1.33
2023-05-09T13:13:43.595Z,1.98
2023-05-09T13:16:11.642Z,2.35
2023-05-09T13:18:41.618Z,1.48
2023-05-09T13:21:08.827Z,2.10
2023-05-09T13:23:35.824Z,1.65
2023-05-09T13:26:02.481Z,2.10
2023-05-09T13:28:29.101Z,1.42
2023-05-09T13:30:56.230Z,2.53
2023-05-09T13:33:26.428Z,1.85
2023-05-09T13:35:53.750Z,2.47
2023-05-09T13:38:21.956Z,2.25
2023-05-09T13:40:48.560Z,2.25
2023-05-09T13:43:18.529Z,1.70
2023-05-09T13:45:45.079Z,3.05
2023-05-09T13:48:14.442Z,2.30
2023-05-09T13:50:41.527Z,1.95
2023-05-09T13:53:08.228Z,2.20
2023-05-09T13:55:35.273Z,2.30
2023-05-09T13:58:01.966Z,2.08
2023-05-09T14:00:28.665Z,2.58
2023-05-09T14:02:56.615Z,2.15
2023-05-09T14:05:23.319Z,2.17
2023-05-09T14:07:49.867Z,2.65
2023-05-09T14:10:18.140Z,2.50
2023-05-09T14:12:48.575Z,2.40
2023-05-09T14:15:16.416Z,1.77
2023-05-09T14:17:44.570Z,2.28
2023-05-09T14:20:12.753Z,1.85
2023-05-09T14:22:39.626Z,2.00
2023-05-09T14:25:06.612Z,1.80
2023-05-09T14:27:36.829Z,2.05
2023-05-09T14:30:06.994Z,1.95
2023-05-09T14:32:33.709Z,2.00
2023-05-09T14:35:00.433Z,1.67
2023-05-09T14:37:27.108Z,2.65
2023-05-09T14:39:53.696Z,1.98
2023-05-09T14:42:20.374Z,2.47
2023-05-09T14:44:48.552Z,1.83
2023-05-09T14:47:19.800Z,2.20
2023-05-09T14:49:48.476Z,2.33
2023-05-09T14:52:15.355Z,2.20
2023-05-09T14:54:42.135Z,1.90
2023-05-09T14:57:08.939Z,2.33
2023-05-09T14:59:37.188Z,3.03
2023-05-09T15:02:03.969Z,2.45
2023-05-09T15:04:31.277Z,1.85
2023-05-09T15:06:58.942Z,2.20
2023-05-09T15:09:25.844Z,2.78
2023-05-09T15:11:52.477Z,2.45
2023-05-09T15:14:19.122Z,2.72
2023-05-09T15:16:49.327Z,2.03
2023-05-09T15:19:18.271Z,2.63
2023-05-09T15:21:44.880Z,2.60
2023-05-09T15:24:11.519Z,2.40
2023-05-09T15:26:38.231Z,2.15
2023-05-09T15:29:07.179Z,2.20
2023-05-09T15:31:36.334Z,2.35
2023-05-09T15:34:03.522Z,2.30
2023-05-09T15:36:30.314Z,2.13
2023-05-09T15:39:00.418Z,3.72
2023-05-09T15:41:27.328Z,3.65
2023-05-09T15:43:54.102Z,2.65
2023-05-09T15:46:25.521Z,2.05
2023-05-09T15:48:54.690Z,2.50
2023-05-09T15:51:23.840Z,2.55
2023-05-09T15:53:50.871Z,2.55
2023-05-09T15:56:21.563Z,2.65
2023-05-09T15:58:48.167Z,2.20
2023-05-09T16:01:14.818Z,2.50
2023-05-09T16:03:42.025Z,2.60
2023-05-09T16:06:08.842Z,2.25
2023-05-09T16:08:35.409Z,2.55
2023-05-09T16:11:06.261Z,1.48
2023-05-09T16:13:35.639Z,2.75
2023-05-09T16:16:06.029Z,2.13
2023-05-09T16:18:32.734Z,2.92
2023-05-09T16:20:59.696Z,2.55
2023-05-09T16:23:26.572Z,3.00
2023-05-09T16:25:55.616Z,2.40
2023-05-09T16:28:27.858Z,2.72
2023-05-09T16:30:54.421Z,3.22
2023-05-09T16:33:21.262Z,2.75
2023-05-09T16:35:48.071Z,2.15
2023-05-09T16:38:14.789Z,2.13
2023-05-09T16:40:41.461Z,2.00
2023-05-09T16:43:08.319Z,2.45
2023-05-09T16:45:35.135Z,2.33
2023-05-09T16:48:02.584Z,2.42
2023-05-09T16:50:29.969Z,2.13
2023-05-09T16:52:56.994Z,2.08
2023-05-09T16:55:26.000Z,2.05
2023-05-09T16:58:08.931Z,1.77
2023-05-09T17:00:37.990Z,2.53
2023-05-09T17:03:20.098Z,2.78
2023-05-09T17:05:52.538Z,1.85
2023-05-09T17:08:28.222Z,2.55
2023-05-09T17:11:28.296Z,2.15
2023-05-09T17:13:59.481Z,2.50
2023-05-09T17:20:05.130Z,1.98
2023-05-09T17:25:48.722Z,3.25
2023-05-09T17:28:23.104Z,1.73
2023-05-09T17:30:51.471Z,2.63
2023-05-09T17:33:22.169Z,2.35
2023-05-09T17:35:50.279Z,2.13
2023-05-09T17:41:03.487Z,1.92
2023-05-09T17:43:34.415Z,1.85
2023-05-09T17:46:08.603Z,2.03
2023-05-09T17:48:39.696Z,3.45
2023-05-09T17:51:24.162Z,2.38
2023-05-09T17:53:59.718Z,2.35
2023-05-09T17:56:35.213Z,1.83
2023-05-09T17:59:04.740Z,2.47
2023-05-09T18:01:32.159Z,2.40
2023-05-09T18:03:59.989Z,2.13
2023-05-09T18:06:26.994Z,2.03
2023-05-09T18:08:55.996Z,2.35
2023-05-09T18:11:22.874Z,2.45
2023-05-09T18:13:51.813Z,2.13
2023-05-09T18:16:18.929Z,2.03
2023-05-09T18:18:47.769Z,2.05
2023-05-09T18:21:15.125Z,2.63
2023-05-09T18:23:41.902Z,2.05
2023-05-09T18:26:08.750Z,2.00
2023-05-09T18:28:44.988Z,2.28
2023-05-09T18:31:13.024Z,2.65
2023-05-09T18:33:40.257Z,1.90
2023-05-09T18:36:09.598Z,2.10
2023-05-09T18:38:38.549Z,1.95
2023-05-09T18:41:09.362Z,2.60
2023-05-09T18:43:38.954Z,2.72
2023-05-09T18:46:05.919Z,1.75
2023-05-09T18:48:33.613Z,2.53
2023-05-09T18:51:01.658Z,1.80
2023-05-09T18:53:29.533Z,1.75
2023-05-09T18:55:56.950Z,1.52
2023-05-09T18:58:24.878Z,2.25
2023-05-09T19:00:53.081Z,1.73
2023-05-09T19:03:20.919Z,3.15
2023-05-09T19:05:49.085Z,2.25
2023-05-09T19:08:25.494Z,1.95
2023-05-09T19:10:53.090Z,1.90
2023-05-09T19:13:21.466Z,2.13
2023-05-09T19:15:48.075Z,2.70
2023-05-09T19:18:14.659Z,2.05
2023-05-09T19:20:43.606Z,2.65
2023-05-09T19:23:12.071Z,2.35
2023-05-09T19:25:38.798Z,2.13
2023-05-09T19:28:05.542Z,2.60
2023-05-09T19:30:32.212Z,1.92
2023-05-09T19:32:59.472Z,2.45
2023-05-09T19:35:26.316Z,1.88
2023-05-09T19:37:52.974Z,1.73
2023-05-09T19:40:23.049Z,2.88
2023-05-09T19:42:52.723Z,2.38
2023-05-09T19:45:21.885Z,2.00
2023-05-09T19:47:48.671Z,2.47
2023-05-09T19:50:15.995Z,1.92
2023-05-09T19:52:43.937Z,1.70
2023-05-09T19:55:11.317Z,3.50
2023-05-09T19:57:38.387Z,2.08
2023-05-09T20:00:07.174Z,2.65
2023-05-09T20:02:36.400Z,1.77
2023-05-09T20:05:04.602Z,2.35
2023-05-09T20:07:33.018Z,2.90
2023-05-09T20:10:02.578Z,2.20
2023-05-09T20:12:30.187Z,2.25
2023-05-09T20:14:58.293Z,2.22
2023-05-09T20:17:26.995Z,2.78
2023-05-09T20:19:53.682Z,1.98
2023-05-09T20:22:21.885Z,1.92
2023-05-09T20:24:49.750Z,2.22
2023-05-09T20:27:16.393Z,1.92
2023-05-09T20:29:43.241Z,2.08
2023-05-09T20:32:11.493Z,2.40
2023-05-09T20:34:38.176Z,2.25
2023-05-09T20:37:07.706Z,2.22
2023-05-09T20:39:34.395Z,1.80
2023-05-09T20:42:03.666Z,2.47
2023-05-09T20:44:31.631Z,2.72
2023-05-09T20:46:59.544Z,2.03
2023-05-09T20:49:27.222Z,2.33
2023-05-09T20:51:55.285Z,2.13
2023-05-09T20:54:24.146Z,2.55
2023-05-09T20:56:54.154Z,2.20
2023-05-09T20:59:20.957Z,2.78
2023-05-09T21:01:47.667Z,2.60
2023-05-09T21:04:16.206Z,1.42
2023-05-09T21:06:42.875Z,2.38
2023-05-09T21:09:10.109Z,1.90
2023-05-09T21:11:38.371Z,3.20
2023-05-09T21:14:05.858Z,2.88
2023-05-09T21:16:32.621Z,2.40
2023-05-09T21:19:02.524Z,3.75
2023-05-09T21:21:29.369Z,2.13
2023-05-09T21:23:55.945Z,2.75
2023-05-09T21:26:23.278Z,2.30
2023-05-09T21:28:49.997Z,2.45
2023-05-09T21:31:16.757Z,2.58
2023-05-09T21:33:43.293Z,2.25
2023-05-09T21:36:09.930Z,2.20
2023-05-09T21:38:36.627Z,2.13
2023-05-09T21:41:03.293Z,2.55
2023-05-09T21:43:29.944Z,2.55
2023-05-09T21:45:56.714Z,2.53
2023-05-09T21:48:23.412Z,2.72
2023-05-09T21:50:49.929Z,2.65
2023-05-09T21:53:16.526Z,2.97
2023-05-09T21:55:43.123Z,2.60
2023-05-09T21:58:09.682Z,2.85
2023-05-09T22:00:36.287Z,2.08
2023-05-09T22:03:03.050Z,2.97
2023-05-09T22:05:29.683Z,2.65
2023-05-09T22:07:56.215Z,2.22
2023-05-09T22:10:22.923Z,2.78
2023-05-09T22:12:49.502Z,2.28
2023-05-09T22:15:18.252Z,2.67
2023-05-09T22:17:44.862Z,2.50
2023-05-09T22:20:13.010Z,2.33
2023-05-09T22:22:39.756Z,3.35
2023-05-09T22:25:06.980Z,2.72
2023-05-09T22:27:33.509Z,2.10
2023-05-09T22:30:00.130Z,2.47
2023-05-09T22:32:26.893Z,2.35
2023-05-09T22:34:54.234Z,3.35
2023-05-09T22:37:20.818Z,2.88
2023-05-09T22:39:47.740Z,2.72
2023-05-09T22:42:14.417Z,4.25
2023-05-09T22:44:42.080Z,3.50
2023-05-09T22:47:08.750Z,2.90
2023-05-09T22:49:35.658Z,3.08
2023-05-09T22:52:02.612Z,3.08
2023-05-09T22:54:29.240Z,2.95
2023-05-09T22:56:55.874Z,3.55
2023-05-09T22:59:22.751Z,2.83
2023-05-09T23:01:49.664Z,3.03
2023-05-09T23:04:16.487Z,2.88
2023-05-09T23:06:43.009Z,3.17
2023-05-09T23:09:10.606Z,2.78
2023-05-09T23:11:37.721Z,3.85
2023-05-09T23:14:05.110Z,3.30
2023-05-09T23:16:31.812Z,2.70
2023-05-09T23:18:58.458Z,2.63
2023-05-09T23:21:25.192Z,3.53
2023-05-09T23:23:51.732Z,3.08
2023-05-09T23:26:18.476Z,2.83
2023-05-09T23:28:45.143Z,3.40
2023-05-09T23:31:11.944Z,2.85
2023-05-09T23:33:38.469Z,3.55
2023-05-09T23:36:05.392Z,4.60
2023-05-09T23:38:32.122Z,2.97
2023-05-09T23:41:00.088Z,3.35
2023-05-09T23:43:26.838Z,3.33
2023-05-09T23:45:53.986Z,2.95
2023-05-09T23:48:20.633Z,3.25
2023-05-09T23:50:50.449Z,3.60
2023-05-09T23:53:18.334Z,2.67
2023-05-09T23:55:44.911Z,3.60
2023-05-09T23:58:12.279Z,3.80
